createdAt,value
2019-03-26T00:03:02.652Z,53.48
2019-03-26T00:07:03.636Z,52.30
2019-03-26T00:14:34.636Z,47.15
2019-03-26T00:19:35.665Z,44.38
2019-03-26T00:22:06.177Z,53.40
2019-03-26T00:27:07.996Z,47.50
2019-03-26T00:29:38.784Z,52.70
2019-03-26T00:39:38.969Z,47.80
2019-03-26T00:42:11.596Z,50.85
2019-03-26T00:44:41.764Z,44.50
2019-03-26T00:47:12.700Z,57.65
2019-03-26T00:49:42.964Z,42.20
2019-03-26T00:52:13.683Z,42.25
2019-03-26T00:54:43.747Z,38.08
2019-03-26T00:57:13.714Z,40.40
2019-03-26T01:00:11.630Z,50.00
2019-03-26T01:05:11.582Z,48.98
2019-03-26T01:07:42.606Z,46.37
2019-03-26T01:12:52.636Z,50.45
2019-03-26T01:17:52.685Z,67.10
2019-03-26T01:22:52.698Z,64.80
2019-03-26T01:27:51.810Z,69.82
2019-03-26T01:35:22.759Z,66.60
2019-03-26T01:45:24.699Z,47.90
2019-03-26T01:50:25.299Z,48.92
2019-03-26T01:52:56.750Z,52.60
2019-03-26T01:57:57.962Z,46.88
2019-03-26T02:02:37.705Z,43.87
2019-03-26T02:07:39.027Z,47.48
2019-03-26T02:10:09.771Z,49.33
2019-03-26T02:12:41.340Z,39.75
2019-03-26T02:15:29.660Z,39.25
2019-03-26T02:20:30.674Z,42.93
2019-03-26T02:25:31.674Z,43.80
2019-03-26T02:28:02.648Z,41.80
2019-03-26T02:33:03.692Z,49.73
2019-03-26T02:43:06.692Z,34.00
2019-03-26T02:48:07.632Z,34.35
2019-03-26T02:53:09.013Z,35.33
2019-03-26T02:55:40.634Z,45.85
2019-03-26T03:00:40.673Z,41.70
2019-03-26T03:05:40.672Z,36.40
2019-03-26T03:10:41.560Z,42.15
2019-03-26T03:15:41.670Z,41.70
2019-03-26T03:18:12.664Z,49.20
2019-03-26T03:23:12.740Z,48.23
2019-03-26T03:25:46.657Z,56.08
2019-03-26T03:30:46.657Z,51.05
2019-03-26T03:35:52.555Z,41.23
2019-03-26T03:40:49.001Z,49.25
2019-03-26T03:43:21.614Z,46.60
2019-03-26T03:48:24.603Z,63.92
2019-03-26T03:53:26.740Z,55.63
2019-03-26T03:58:32.789Z,57.62
2019-03-26T04:01:03.749Z,48.90
2019-03-26T04:03:34.579Z,51.42
2019-03-26T04:08:38.668Z,52.78
2019-03-26T04:13:38.592Z,50.20
2019-03-26T04:21:14.644Z,57.23
2019-03-26T04:26:14.711Z,63.70
2019-03-26T04:28:44.642Z,58.23
2019-03-26T04:31:15.611Z,35.23
2019-03-26T04:36:25.487Z,57.90
2019-03-26T04:41:16.635Z,52.30
2019-03-26T04:48:47.572Z,55.75
2019-03-26T04:51:18.615Z,49.53
2019-03-26T04:56:19.596Z,52.53
2019-03-26T05:01:19.623Z,50.65
2019-03-26T05:06:19.629Z,58.20
2019-03-26T05:08:50.225Z,58.52
2019-03-26T05:13:50.621Z,65.42
2019-03-26T05:18:50.583Z,53.50
2019-03-26T05:28:50.271Z,60.38
2019-03-26T05:31:20.570Z,66.87
2019-03-26T05:33:50.645Z,72.12
2019-03-26T05:36:21.255Z,75.28
2019-03-26T05:41:21.639Z,70.45
2019-03-26T05:47:43.559Z,71.28
2019-03-26T05:52:43.610Z,79.00
2019-03-26T05:57:44.319Z,78.47
2019-03-26T06:00:20.763Z,80.17
2019-03-26T06:02:51.572Z,76.80
2019-03-26T06:07:52.562Z,76.97
2019-03-26T06:16:38.200Z,65.42
2019-03-26T06:21:37.022Z,56.75
2019-03-26T06:24:07.707Z,65.60
2019-03-26T06:29:12.586Z,71.05
2019-03-26T06:31:43.595Z,66.40
2019-03-26T06:36:45.421Z,69.95
2019-03-26T06:39:16.671Z,71.10
2019-03-26T06:44:19.576Z,77.20
2019-03-26T06:49:20.630Z,58.05
2019-03-26T06:51:51.632Z,62.35
2019-03-26T06:56:55.300Z,59.08
2019-03-26T06:59:25.721Z,68.37
2019-03-26T07:37:44.578Z,47.40
2019-03-26T07:40:52.623Z,47.40
2019-03-26T07:48:25.783Z,45.43
2019-03-26T07:50:57.349Z,47.20
2019-03-26T07:53:27.662Z,37.50
2019-03-26T07:57:49.695Z,41.50
2019-03-26T08:42:48.659Z,31.15
2019-03-26T08:52:51.746Z,39.53
2019-03-26T09:54:10.286Z,52.60
2019-03-26T09:56:42.752Z,39.60
2019-03-26T09:59:13.650Z,41.42
2019-03-26T11:55:48.713Z,30.60
2019-03-26T12:00:25.263Z,25.17
2019-03-26T12:02:55.721Z,26.25
2019-03-26T12:05:26.326Z,23.67
2019-03-26T12:10:26.692Z,18.00
2019-03-26T12:15:27.679Z,31.62
2019-03-26T13:27:29.708Z,15.18
2019-03-26T13:32:30.812Z,15.32
2019-03-26T13:35:01.719Z,14.60
2019-03-26T13:40:01.584Z,13.70
2019-03-26T13:42:32.572Z,12.40
2019-03-26T13:47:32.748Z,17.15
2019-03-26T13:50:04.587Z,14.60
2019-03-26T13:55:05.597Z,17.10
2019-03-26T14:00:06.537Z,18.62
2019-03-26T14:05:13.731Z,16.00
2019-03-26T14:07:44.446Z,14.78
2019-03-26T14:12:44.646Z,19.65
2019-03-26T14:15:14.704Z,17.80
2019-03-26T14:17:45.194Z,27.70
2019-03-26T14:27:46.196Z,27.42
2019-03-26T14:30:35.537Z,20.32
2019-03-26T14:35:36.558Z,21.15
2019-03-26T14:40:35.940Z,22.50
2019-03-26T14:43:06.548Z,37.20
2019-03-26T14:45:36.934Z,22.55
2019-03-26T14:48:07.563Z,19.10
2019-03-26T14:50:37.703Z,16.37
2019-03-26T14:53:08.003Z,15.05
2019-03-26T14:58:08.492Z,14.40
2019-03-26T15:03:08.054Z,11.22
2019-03-26T15:08:08.283Z,8.90
2019-03-26T15:10:39.265Z,3.60
2019-03-26T15:15:38.989Z,4.30
2019-03-26T15:20:39.592Z,2.47
2019-03-26T15:25:39.647Z,2.43
2019-03-26T15:28:11.683Z,2.62
2019-03-26T15:33:13.644Z,2.47
2019-03-26T15:38:14.197Z,3.20
2019-03-26T15:45:14.279Z,5.33
2019-03-26T15:47:44.585Z,3.62
2019-03-26T15:50:36.604Z,5.58
2019-03-26T15:55:37.970Z,3.85
2019-03-26T15:58:09.180Z,6.17
2019-03-26T16:00:40.486Z,9.55
2019-03-26T16:05:41.595Z,7.95
2019-03-26T16:08:11.540Z,5.70
2019-03-26T16:10:42.556Z,5.40
2019-03-26T16:13:12.791Z,6.90
2019-03-26T16:15:45.150Z,6.42
2019-03-26T16:18:16.188Z,9.38
2019-03-26T16:20:46.539Z,5.58
2019-03-26T16:23:16.663Z,5.90
2019-03-26T16:25:46.815Z,6.40
2019-03-26T16:33:18.779Z,10.38
2019-03-26T16:35:49.484Z,13.10
2019-03-26T16:40:49.607Z,9.95
2019-03-26T16:45:50.583Z,10.30
2019-03-26T16:53:20.595Z,10.82
2019-03-26T16:58:20.594Z,11.73
2019-03-26T17:00:51.546Z,10.45
2019-03-26T17:08:22.856Z,23.42
2019-03-26T17:10:53.491Z,12.05
2019-03-26T17:13:23.576Z,14.33
2019-03-26T17:15:54.292Z,17.23
2019-03-26T17:20:54.539Z,20.33
2019-03-26T17:23:24.562Z,20.12
2019-03-26T17:25:54.720Z,20.05
2019-03-26T17:28:25.495Z,20.95
2019-03-26T17:30:57.628Z,19.05
2019-03-26T17:33:29.091Z,16.17
2019-03-26T17:35:59.524Z,19.57
2019-03-26T17:38:29.892Z,17.98
2019-03-26T17:41:01.359Z,16.20
2019-03-26T17:46:01.556Z,17.92
2019-03-26T17:48:31.560Z,25.80
2019-03-26T17:51:02.541Z,24.45
2019-03-26T17:58:31.625Z,25.25
2019-03-26T18:01:02.176Z,35.98
2019-03-26T18:03:33.492Z,31.20
2019-03-26T18:12:30.132Z,18.57
2019-03-26T18:17:20.533Z,11.83
2019-03-26T18:27:02.615Z,11.78
2019-03-26T18:34:32.676Z,17.07
2019-03-26T18:39:34.563Z,19.02
2019-03-26T18:47:06.553Z,17.10
2019-03-26T18:54:13.637Z,24.52
2019-03-26T18:59:16.178Z,30.48
2019-03-26T19:01:47.472Z,31.35
2019-03-26T19:04:50.273Z,25.82
2019-03-26T19:07:21.195Z,20.55
2019-03-26T19:09:52.221Z,25.10
2019-03-26T19:12:22.979Z,20.32
2019-03-26T19:14:53.575Z,14.45
2019-03-26T19:18:06.577Z,20.25
2019-03-26T19:20:36.689Z,20.23
2019-03-26T19:23:07.683Z,14.63
2019-03-26T19:25:38.579Z,15.75
2019-03-26T19:28:08.759Z,19.50
2019-03-26T19:30:39.547Z,13.58
2019-03-26T19:35:41.564Z,11.08
2019-03-26T19:43:11.866Z,18.37
2019-03-26T19:45:42.602Z,21.40
2019-03-26T19:50:43.230Z,21.85
2019-03-26T19:53:13.540Z,14.85
2019-03-26T19:55:43.597Z,14.65
2019-03-26T19:58:13.669Z,20.32
2019-03-26T20:00:43.664Z,19.12
2019-03-26T20:05:56.548Z,13.00
2019-03-26T20:08:26.586Z,12.70
2019-03-26T20:11:49.643Z,12.70
2019-03-26T20:14:20.563Z,18.85
2019-03-26T20:16:51.297Z,20.20
2019-03-26T20:21:51.600Z,10.32
2019-03-26T20:26:51.584Z,13.08
2019-03-26T20:31:52.823Z,9.60
2019-03-26T20:34:26.146Z,11.43
2019-03-26T20:36:56.700Z,15.88
2019-03-26T20:39:27.594Z,11.43
2019-03-26T20:44:28.611Z,13.20
2019-03-26T20:49:28.681Z,10.13
2019-03-26T20:51:59.600Z,13.98
2019-03-26T20:57:00.243Z,15.10
2019-03-26T20:59:32.539Z,13.80
2019-03-26T21:04:33.617Z,13.20
2019-03-26T21:07:04.348Z,15.95
2019-03-26T21:09:35.356Z,9.88
2019-03-26T21:12:06.626Z,10.08
2019-03-26T21:17:06.656Z,11.53
2019-03-26T21:22:06.669Z,10.78
2019-03-26T21:27:07.623Z,12.70
2019-03-26T21:32:08.618Z,10.70
2019-03-26T21:37:10.647Z,18.60
2019-03-26T21:42:10.635Z,9.53
2019-03-26T21:47:10.602Z,15.58
2019-03-26T21:52:10.664Z,12.13
2019-03-26T21:54:40.834Z,13.30
2019-03-26T21:57:11.766Z,9.03
2019-03-26T21:59:42.606Z,16.57
2019-03-26T22:04:42.653Z,14.00
2019-03-26T22:07:13.640Z,15.90
2019-03-26T22:09:44.610Z,14.68
2019-03-26T22:14:45.598Z,11.90
2019-03-26T22:19:46.191Z,10.30
2019-03-26T22:22:17.503Z,10.75
2019-03-26T22:27:18.613Z,10.58
2019-03-26T22:32:18.664Z,16.55
2019-03-26T22:34:51.687Z,12.00
2019-03-26T22:39:52.586Z,10.45
2019-03-26T22:42:23.521Z,14.40
2019-03-26T23:04:53.597Z,12.47
2019-03-26T23:12:46.757Z,16.67
2019-03-26T23:15:24.224Z,18.48
2019-03-26T23:17:55.563Z,16.35
2019-03-26T23:25:10.515Z,15.23
2019-03-26T23:30:12.716Z,17.07
2019-03-26T23:32:44.610Z,12.85
2019-03-26T23:37:48.614Z,16.85
2019-03-26T23:42:49.768Z,17.42
2019-03-26T23:45:20.710Z,17.50
2019-03-26T23:47:51.744Z,13.50
2019-03-26T23:50:22.636Z,16.20
2019-03-26T23:55:23.606Z,9.05
